Howell, MI

11:46 AM EDT on June 29, 2017 (GMT -0400)
Livingston County

Weather History for KOZW - September, 2012

Change the Weather History Date:

Friday, September 7, 2012

  Actual Average Record
Temperature  
Mean Temperature 70 °F -  
Max Temperature 80 °F 77 °F 93 °F (2002)
Min Temperature 59 °F 55 °F 48 °F (2011)
Cooling Degree Days 4    
Growing Degree Days 20 (Base 50)    
Moisture  
Dew Point 56 °F    
Average Humidity 71    
Maximum Humidity 89    
Minimum Humidity 36    
Precipitation  
Precipitation 0.00 in - - ()
Sea Level Pressure  
Sea Level Pressure 29.84 in    
Wind  
Wind Speed 4 mph (WSW)    
Max Wind Speed 17 mph    
Max Gust Speed 31 mph    
Visibility 10 miles    
Events Rain    
Averages and records for this station are not official NWS values.
T = Trace of Precipitation, MM = Missing Value Source: NWS Daily Summary

Daily Weather History Graph

Daily Weather History Graph

Search for Another Location

Airport or City:

Trip Planner

Search our weather history database for the weather conditions in past years. The results will help you decide how hot, cold, wet, or windy it might be!

Date:

Astronomy

Sep. 07, 2012 Rise Set
Actual Time 7:07 AM EDT 7:58 PM EDT
Civil Twilight 6:39 AM EDT 8:27 PM EDT
Nautical Twilight 6:04 AM EDT 9:01 PM EDT
Astronomical Twilight 5:29 AM EDT 9:36 PM EDT
Moon 11:44 PM EDT (9/7) 2:08 PM EDT (9/7)
Length of Visible Light 13h 48m
Length of Day
12h 51m
Waning Gibbous, 58% of the Moon is Illuminated
Sep 7
Waning Gibbous
Sep 8
Last Quarter
Sep 15
New
Sep 22
First Quarter
Sep 29
Full

Hourly Weather History & Observations

Time (EDT) Temp. Dew Point Humidity Pressure Visibility Wind Dir Wind Speed Gust Speed Precip Events Conditions
12:15 AM 65.8 °F 57.2 °F 74% 29.92 in 10.0 mi WSW 5.8 mph - N/A   Clear
12:34 AM 65.5 °F 57.2 °F 75% 29.93 in 10.0 mi West 5.8 mph - N/A   Clear
12:55 AM 65.3 °F 57.2 °F 75% 29.93 in 10.0 mi West 5.8 mph - N/A   Clear
1:14 AM 65.3 °F 57.2 °F 75% 29.92 in 10.0 mi West 4.6 mph - N/A   Clear
1:35 AM 63.5 °F 56.5 °F 78% 29.92 in 10.0 mi West 4.6 mph - N/A   Clear
1:55 AM 63.5 °F 56.7 °F 78% 29.92 in 10.0 mi West 6.9 mph - N/A   Clear
2:14 AM 61.3 °F 55.6 °F 81% 29.91 in 10.0 mi West 5.8 mph - N/A   Clear
2:35 AM 61.9 °F 56.3 °F 82% 29.90 in 10.0 mi West 3.5 mph - N/A   Clear
2:55 AM 62.1 °F 56.5 °F 82% 29.91 in 10.0 mi West 3.5 mph - N/A   Clear
3:14 AM 60.8 °F 55.6 °F 83% 29.90 in 10.0 mi West 3.5 mph - N/A   Clear
3:35 AM 59.0 °F 54.5 °F 85% 29.89 in 10.0 mi Calm Calm - N/A   Clear
3:55 AM 59.2 °F 55.0 °F 86% 29.91 in 10.0 mi West 3.5 mph - N/A   Clear
4:14 AM 60.3 °F 56.5 °F 87% 29.91 in 10.0 mi West 3.5 mph - N/A   Clear
4:35 AM 60.8 °F 56.7 °F 86% 29.90 in 10.0 mi Calm Calm - N/A   Clear
4:55 AM 59.7 °F 55.4 °F 86% 29.90 in 10.0 mi Calm Calm - N/A   Clear
5:14 AM 59.0 °F 55.0 °F 87% 29.89 in 10.0 mi WSW 3.5 mph - N/A   Clear
5:35 AM 59.2 °F 55.6 °F 88% 29.90 in 10.0 mi Calm Calm - N/A   Clear
5:55 AM 59.4 °F 55.8 °F 88% 29.89 in 10.0 mi Calm Calm - N/A   Clear
6:15 AM 60.1 °F 55.9 °F 86% 29.90 in 10.0 mi Calm Calm - N/A   Clear
6:35 AM 59.4 °F 55.6 °F 87% 29.89 in 10.0 mi Calm Calm - N/A   Clear
6:54 AM 59.0 °F 55.6 °F 88% 29.90 in 10.0 mi West 3.5 mph - N/A   Clear
7:15 AM 59.2 °F 55.8 °F 88% 29.90 in 10.0 mi WSW 3.5 mph - N/A   Clear
7:35 AM 60.1 °F 56.7 °F 88% 29.89 in 10.0 mi Calm Calm - N/A   Clear
7:54 AM 59.9 °F 56.3 °F 88% 29.90 in 7.0 mi WSW 3.5 mph - N/A   Clear
8:15 AM 60.3 °F 56.8 °F 88% 29.91 in 10.0 mi Calm Calm - N/A   Clear
8:35 AM 61.2 °F 57.2 °F 87% 29.92 in 10.0 mi West 4.6 mph - N/A   Clear
8:54 AM 61.3 °F 57.2 °F 86% 29.91 in 10.0 mi Calm Calm - N/A   Clear
9:15 AM 62.1 °F 57.7 °F 86% 29.92 in 10.0 mi WSW 3.5 mph - N/A   Clear
9:34 AM 63.0 °F 58.1 °F 84% 29.93 in 10.0 mi West 4.6 mph - N/A   Clear
9:55 AM 64.0 °F 57.7 °F 80% 29.93 in 10.0 mi Calm Calm - N/A   Clear
10:15 AM 65.8 °F 57.4 °F 74% 29.93 in 10.0 mi Calm Calm - N/A   Clear
10:34 AM 66.6 °F 57.6 °F 73% 29.94 in 10.0 mi WSW 3.5 mph - N/A   Clear
10:55 AM 67.3 °F 57.2 °F 70% 29.93 in 10.0 mi Calm Calm - N/A   Clear
11:15 AM 69.1 °F 55.6 °F 62% 29.92 in 10.0 mi Calm Calm - N/A   Clear
11:34 AM 69.4 °F 55.9 °F 62% 29.91 in 10.0 mi Calm Calm - N/A   Clear
11:55 AM 70.7 °F 56.8 °F 61% 29.91 in 10.0 mi Calm Calm - N/A   Clear
12:14 PM 70.7 °F 56.7 °F 61% 29.89 in 10.0 mi Calm Calm - N/A   Clear
12:35 PM 70.5 °F 57.4 °F 63% 29.90 in 10.0 mi Calm Calm - N/A   Clear
12:55 PM 71.8 °F 57.0 °F 60% 29.91 in 10.0 mi Calm Calm - N/A   Clear
1:14 PM 72.9 °F 56.8 °F 57% 29.90 in 10.0 mi SW 3.5 mph - N/A   Clear
1:35 PM 72.1 °F 56.8 °F 58% 29.88 in 10.0 mi Calm Calm - N/A   Scattered Clouds
1:55 PM 72.5 °F 57.0 °F 58% 29.85 in 10.0 mi NE 4.6 mph - N/A   Overcast
2:14 PM 72.1 °F 57.4 °F 60% 29.83 in 10.0 mi ENE 4.6 mph - N/A   Overcast
2:35 PM 74.1 °F 56.7 °F 54% 29.83 in 10.0 mi SSE 3.5 mph - N/A   Mostly Cloudy
2:55 PM 77.0 °F 54.7 °F 46% 29.84 in 10.0 mi South 5.8 mph - N/A   Scattered Clouds
3:14 PM 78.1 °F 52.9 °F 41% 29.83 in 10.0 mi SSE 8.1 mph - N/A   Clear
3:40 PM 77.4 °F 51.1 °F 40% 29.80 in 10.0 mi SE 3.5 mph - N/A   Scattered Clouds
3:59 PM 79.0 °F 51.1 °F 38% 29.80 in 10.0 mi Calm Calm - N/A   Scattered Clouds
4:15 PM 78.1 °F 50.7 °F 38% 29.80 in 10.0 mi SSE 5.8 mph - N/A   Scattered Clouds
4:35 PM 77.9 °F 50.9 °F 39% 29.78 in 10.0 mi SSE 4.6 mph - N/A   Mostly Cloudy
4:54 PM 78.4 °F 50.2 °F 37% 29.77 in 10.0 mi SSE 8.1 mph - N/A   Scattered Clouds
5:15 PM 80.2 °F 50.7 °F 36% 29.76 in 10.0 mi SE 6.9 mph - N/A   Clear
5:54 PM 79.3 °F 54.5 °F 42% 29.74 in 10.0 mi SSE 10.4 mph - N/A   Clear
6:15 PM 78.8 °F 57.4 °F 48% 29.72 in 10.0 mi South 10.4 mph - N/A   Clear
6:35 PM 77.9 °F 58.3 °F 51% 29.71 in 10.0 mi South 10.4 mph - N/A   Clear
6:54 PM 77.5 °F 59.0 °F 53% 29.71 in 10.0 mi South 4.6 mph - N/A   Clear
7:15 PM 77.2 °F 59.2 °F 54% 29.71 in 10.0 mi Calm Calm - N/A   Mostly Cloudy
7:34 PM 76.3 °F 59.2 °F 55% 29.70 in 10.0 mi SW 3.5 mph - N/A   Mostly Cloudy
7:55 PM 76.5 °F 58.3 °F 53% 29.69 in 10.0 mi SSW 4.6 mph - N/A   Mostly Cloudy
8:15 PM 76.1 °F 57.4 °F 52% 29.67 in 10.0 mi South 9.2 mph - N/A Rain Light Rain
8:34 PM 74.5 °F 57.9 °F 56% 29.68 in 10.0 mi SW 12.7 mph 17.3 mph N/A Rain Rain
8:55 PM 70.9 °F 60.4 °F 69% 29.71 in 10.0 mi NW 17.3 mph 31.1 mph N/A Rain Rain
9:15 PM 66.4 °F 62.1 °F 86% 29.72 in 4.0 mi NNW 13.8 mph 18.4 mph N/A Rain Heavy Rain
9:34 PM 63.9 °F 59.7 °F 86% 29.75 in 5.0 mi NW 13.8 mph 20.7 mph N/A Rain Heavy Rain
9:55 PM 61.7 °F 57.6 °F 86% 29.76 in 5.0 mi NNW 12.7 mph 17.3 mph N/A Rain Rain
10:15 PM 60.8 °F 57.2 °F 88% 29.76 in 10.0 mi NNW 6.9 mph - N/A Rain Light Rain
10:34 PM 61.0 °F 57.0 °F 87% 29.75 in 10.0 mi North 5.8 mph - N/A Rain Light Rain
10:55 PM 60.8 °F 57.4 °F 88% 29.75 in 10.0 mi North 5.8 mph - N/A Rain Light Rain
11:14 PM 60.8 °F 57.6 °F 89% 29.75 in 10.0 mi North 5.8 mph - N/A   Light Drizzle
11:35 PM 61.2 °F 57.7 °F 88% 29.75 in 10.0 mi NNW 4.6 mph - N/A Rain Rain
11:55 PM 61.2 °F 57.7 °F 88% 29.75 in 7.0 mi NW 5.8 mph - N/A Rain Rain